Página principal
METAR-TAF:

METAR-TAF

Aeroportos :

Córdova, Espanha

latitude: 37-51N, longitude: 004-51W, altura: 90 m

Observação actual do tempo

O boletim foi feito há 46 minutos, às 00:30 UTC
Vento calmo
Temperatura 10°C
Humidade 100%
Pressão 1020 hPa
Visibilidade: 6000 m

METAR: LEBA 130030Z AUTO 00000KT 6000 NSC 10/10 Q1020

Hora: 02:16 (01:16 UTC)

Previsão

O boletim foi feito há 11 horas e 16 minutos, às 14:00 UTC
Previsão válida de 12 às 15 UTC a 12 às 24 UTC
Vento 2 kt com direcção variável
Visibilidade 10 km ou mais
Poucas nuvensa uma altura de 4000 ft

TAF: LEBA 121400Z 1215/1224 VRB02KT 9999 FEW040

Observações e previsões do tempo de mais de 4000 aeroportos (mensagens METAR e TAF).

As estações disponíveis são os pontos amarelos e vermelhos sobre o mapa.

Mova o rato sobre o mapa para ver o nome da estação.

Depois clique no ponto para visualizar as observações e previsões meteorológicas.

Para alterar o mapa : clique nos botões verdes com uma cruz preta para aumentar o zoom; no botão verde com uma pitada de zoom; ou nas setas verdes para mapas adjacentes.


METAR-TAF: